Latest Weather Observations for Oakey

IDQ60901

Issued at 10:21 pm EST Saturday 24 June 2017 (issued every 10 minutes, with the page automatically refreshed every 10 minutes)

About weather observations | Map of Brisbane area stations | Latest observations for Brisbane area | Other Formats
Station Details ID: 041359 Name: OAKEY AERO Lat: -27.40 Lon: 151.74 Height: 405.69 m
Data from the previous 72 hours. | See also: Recent months at Oakey
Date/Time
EST
Temp
°C
App
Temp
°C
Dew
Point
°C
Rel
Hum
%
Delta-T
°C
Wind Press
QNH
hPa
Press
MSL
hPa
Rain since
9am
mm
Dir  Spd
km/h
Gust
km/h
Spd
kts
Gust
kts
24/10:00pm 6.4 4.6 1.5 71 2.0 CALM 0 6 0 3 1019.6 1019.6 0.0
24/09:30pm 7.7 4.5 2.8 71 2.1 NNE 9 11 5 6 1019.7 1019.7 0.0
24/09:00pm 8.3 4.2 2.5 67 2.5 NNE 13 17 7 9 1019.5 1019.5 0.0
24/08:30pm 9.0 5.5 1.4 59 3.2 NNE 9 13 5 7 1019.3 1019.2 0.0
24/08:00pm 10.1 8.0 2.0 57 3.5 ENE 2 7 1 4 1019.2 1019.1 0.0
24/07:30pm 11.3 7.5 1.8 52 4.1 SSE 11 15 6 8 1018.9 1018.8 0.0
24/07:00pm 12.3 8.6 2.2 50 4.5 SSE 11 13 6 7 1018.9 1018.8 0.0
24/06:30pm 14.8 11.2 3.0 45 5.4 SSE 11 13 6 7 1018.5 1018.4 0.0
24/06:00pm 15.6 12.0 3.1 43 5.8 S 11 13 6 7 1017.9 1017.9 0.0
24/05:30pm 17.4 14.1 2.6 37 6.9 SSW 9 9 5 5 1017.6 1017.6 0.0
24/05:00pm 18.5 14.3 1.9 33 7.7 SSW 13 17 7 9 1017.1 1017.0 0.0
24/04:30pm 20.9 16.1 2.7 30 8.7 SSW 17 20 9 11 1017.0 1016.9 0.0
24/04:00pm 21.7 16.5 2.4 28 9.2 SW 19 26 10 14 1016.8 1016.7 0.0
24/03:30pm 22.1 16.7 2.2 27 9.5 SW 20 28 11 15 1016.6 1016.5 0.0
24/03:00pm 22.3 17.4 1.9 26 9.7 SSW 17 24 9 13 1016.5 1016.4 0.0
24/02:30pm 22.3 16.4 1.9 26 9.7 WSW 22 32 12 17 1016.5 1016.4 0.0
24/02:00pm 22.2 16.0 2.3 27 9.5 SW 24 33 13 18 1016.5 1016.4 0.0
24/01:30pm 22.1 16.9 3.3 29 9.2 SW 20 32 11 17 1016.8 1016.7 0.0
24/01:00pm 21.9 15.8 2.6 28 9.3 SW 24 32 13 17 1017.0 1016.9 0.0
24/12:30pm 21.8 14.7 3.5 30 9.0 SW 30 37 16 20 1017.5 1017.5 0.0
24/12:00pm 20.7 14.9 2.5 30 8.7 WSW 22 32 12 17 1017.9 1017.9 0.0
24/11:30am 19.8 15.2 3.5 34 7.9 WSW 17 26 9 14 1018.6 1018.5 0.0
24/11:00am 18.9 14.4 4.3 38 7.1 W 17 26 9 14 1019.2 1019.1 0.0
24/10:30am 17.1 12.1 4.8 44 6.0 W 20 26 11 14 1019.8 1019.8 0.0
24/10:00am 15.6 11.0 5.8 52 4.8 WSW 19 22 10 12 1020.1 1020.1 0.0
24/09:30am 14.2 11.5 7.5 64 3.4 W 11 17 6 9 1020.2 1020.2 0.0
24/09:00am 10.8 10.2 7.3 79 1.7 CALM 0 0 0 0 1020.1 1020.1 0.0
24/08:30am 8.2 7.4 6.7 90 0.7 CALM 0 4 0 2 1020.0 1020.0 0.0
24/08:00am 5.7 4.6 5.1 96 0.3 CALM 0 0 0 0 1019.8 1019.8 0.0
24/07:30am 3.7 2.2 3.0 95 0.3 CALM 0 0 0 0 1019.5 1019.5 0.0
24/07:00am 3.2 1.6 2.2 93 0.4 CALM 0 0 0 0 1019.3 1019.2 0.0
24/06:30am 2.7 1.0 1.8 94 0.4 CALM 0 0 0 0 1018.9 1018.8 0.0
24/06:00am 2.6 0.2 1.9 95 0.3 ESE 4 7 2 4 1018.5 1018.4 0.0
24/05:30am 2.4 0.6 1.5 94 0.4 CALM 0 0 0 0 1018.3 1018.2 0.0
24/05:00am 2.4 -0.1 1.4 93 0.4 NE 4 7 2 4 1017.9 1017.9 0.0
24/04:30am 2.5 -0.9 1.8 95 0.3 SE 9 11 5 6 1017.7 1017.7 0.0
24/04:00am 2.4 -0.7 1.5 94 0.4 ESE 7 7 4 4 1017.8 1017.8 0.0
24/03:30am 2.7 -0.3 1.8 94 0.4 ESE 7 9 4 5 1018.0 1018.0 0.0
24/03:00am 3.2 0.2 1.9 91 0.5 ESE 7 9 4 5 1018.3 1018.2 0.0
24/02:30am 3.3 0.9 2.1 92 0.5 ENE 4 6 2 3 1018.3 1018.2 0.0
24/02:00am 3.8 0.9 2.6 92 0.5 ENE 7 9 4 5 1018.4 1018.3 0.0
24/01:30am 3.7 0.4 2.5 92 0.5 SE 9 11 5 6 1018.6 1018.5 0.0
24/01:00am 4.2 1.0 2.9 91 0.5 SE 9 9 5 5 1019.0 1018.9 0.0
24/12:30am 4.7 1.9 3.2 90 0.6 ESE 7 9 4 5 1019.1 1019.0 0.0
24/12:00am 5.0 1.8 3.0 87 0.8 ESE 9 9 5 5 1019.2 1019.1 0.0
 
Date/Time
EST
Temp
°C
App
Temp
°C
Dew
Point
°C
Rel
Hum
%
Delta-T
°C
Wind Press
QNH
hPa
Press
MSL
hPa
Rain since
9am
mm
Dir  Spd
km/h
Gust
km/h
Spd
kts
Gust
kts
23/11:30pm 5.3 2.5 3.3 87 0.9 E 7 9 4 5 1019.4 1019.3 0.0
23/11:00pm 6.4 3.7 3.7 83 1.2 ESE 7 9 4 5 1019.6 1019.6 0.0
23/10:30pm 6.6 3.6 3.9 83 1.2 E 9 11 5 6 1019.9 1019.9 0.0
23/10:00pm 6.7 4.0 3.7 81 1.3 ENE 7 9 4 5 1020.1 1020.1 0.0
23/09:30pm 7.3 4.6 3.7 78 1.6 E 7 9 4 5 1020.4 1020.4 0.0
23/09:00pm 7.7 6.4 4.1 78 1.6 CALM 0 6 0 3 1020.4 1020.4 0.0
23/08:30pm 8.0 5.0 4.0 76 1.8 NE 9 9 5 5 1020.1 1020.1 0.0
23/08:00pm 8.8 5.8 4.0 72 2.1 E 9 13 5 7 1020.2 1020.2 0.0
23/07:30pm 9.7 7.3 4.1 68 2.5 ESE 6 7 3 4 1020.1 1020.1 0.0
23/07:00pm 11.8 9.5 5.0 63 3.2 NNE 6 7 3 4 1019.6 1019.6 0.0
23/06:30pm 13.4 12.3 5.3 58 3.9 CALM 0 6 0 3 1019.4 1019.3 0.0
23/06:00pm 14.2 13.2 5.8 57 4.1 CALM 0 0 0 0 1019.2 1019.1 0.0
23/05:30pm 16.4 13.7 5.7 49 5.3 WNW 9 11 5 6 1019.3 1019.2 0.0
23/05:00pm 17.6 14.6 5.9 46 5.8 WNW 11 11 6 6 1019.1 1019.0 0.0
23/04:30pm 19.9 17.3 5.9 40 7.1 W 9 13 5 7 1018.9 1018.8 0.0
23/04:00pm 20.7 17.6 5.5 37 7.7 W 11 17 6 9 1019.0 1018.9 0.0
23/03:30pm 20.7 16.5 5.5 37 7.7 WNW 17 24 9 13 1018.9 1018.8 0.0
23/03:00pm 20.9 16.4 6.1 38 7.6 WSW 19 26 10 14 1019.1 1019.0 0.0
23/02:30pm 20.8 16.0 5.6 37 7.7 WNW 20 32 11 17 1019.5 1019.5 0.0
23/02:00pm 20.5 16.0 6.1 39 7.3 WNW 19 24 10 13 1019.9 1019.9 0.0
23/01:30pm 20.2 15.9 5.4 38 7.4 W 17 28 9 15 1020.2 1020.2 0.0
23/01:00pm 20.0 15.5 6.0 40 7.1 WNW 19 28 10 15 1020.8 1020.7 0.0
23/12:30pm 19.8 15.6 5.8 40 7.1 WNW 17 24 9 13 1021.3 1021.2 0.0
23/12:00pm 19.7 16.0 6.1 41 6.9 WNW 15 22 8 12 1021.8 1021.8 0.0
23/11:30am 19.1 16.6 6.6 44 6.4 W 9 19 5 10 1022.5 1022.5 0.0
23/11:00am 17.6 15.9 8.2 54 4.9 SW 7 11 4 6 1023.1 1023.1 0.0
23/10:30am 16.7 15.3 8.7 59 4.2 WSW 6 9 3 5 1023.6 1023.5 0.0
23/10:00am 15.1 13.9 7.9 62 3.7 NW 4 9 2 5 1024.0 1024.0 0.0
23/09:30am 13.5 13.2 8.6 72 2.5 CALM 0 0 0 0 1024.2 1024.2 0.0
23/09:00am 11.5 10.9 7.6 77 1.9 CALM 0 0 0 0 1024.1 1024.1 0.0
23/08:30am 9.2 8.1 7.0 86 1.1 ESE 2 6 1 3 1023.8 1023.8 0.0
23/08:00am 7.7 5.9 7.1 96 0.3 E 6 7 3 4 1023.4 1023.3 0.0
23/07:30am 5.1 2.6 4.5 96 0.3 E 7 46 4 25 1023.4 1023.3 0.0
23/07:12am 3.4 0.7 2.8 96 0.2 ENE 6 7 3 4 1023.2 1023.2 0.0
23/07:00am 2.6 0.9 2.0 96 0.2 CALM 0 0 0 0 1023.2 1023.2 0.0
23/06:53am 2.8 1.2 2.2 96 0.2 CALM 0 6 0 3 1023.1 1023.1 0.0
23/06:30am 3.1 0.2 2.7 97 0.2 SSE 7 7 4 4 1023.0 1023.0 0.0
23/06:00am 3.5 0.9 3.1 97 0.2 SE 6 7 3 4 1022.6 1022.6 0.0
23/05:30am 3.6 1.0 3.0 96 0.2 ESE 6 7 3 4 1022.2 1022.2 0.0
23/05:00am 5.1 2.6 4.5 96 0.3 ESE 7 9 4 5 1022.2 1022.2 0.0
23/04:30am 5.8 3.1 5.4 97 0.2 E 9 11 5 6 1022.0 1022.0 0.0
23/04:00am 5.6 2.8 5.2 97 0.2 E 9 9 5 5 1022.1 1022.1 0.0
23/03:30am 4.6 1.9 3.6 93 0.4 ESE 7 9 4 5 1022.2 1022.2 0.0
23/03:00am 5.8 2.9 4.8 93 0.4 ESE 9 9 5 5 1022.4 1022.4 0.0
23/02:30am 7.1 3.8 6.2 94 0.4 ESE 13 13 7 7 1022.7 1022.7 0.0
23/02:00am 7.5 5.9 6.4 93 0.5 E 4 7 2 4 1023.0 1023.0 0.0
23/01:30am 8.3 6.4 7.4 94 0.4 ENE 7 9 4 5 1023.2 1023.2 0.0
23/01:00am 6.7 3.5 5.2 90 0.7 ESE 11 13 6 7 1023.4 1023.3 0.0
23/12:30am 8.2 5.4 6.8 91 0.7 ESE 11 13 6 7 1023.7 1023.7 0.0
23/12:00am 7.6 4.1 5.6 87 0.9 E 13 15 7 8 1023.9 1023.9 0.0
 
Date/Time
EST
Temp
°C
App
Temp
°C
Dew
Point
°C
Rel
Hum
%
Delta-T
°C
Wind Press
QNH
hPa
Press
MSL
hPa
Rain since
9am
mm
Dir  Spd
km/h
Gust
km/h
Spd
kts
Gust
kts
22/11:30pm 8.7 5.5 6.8 88 0.9 E 13 15 7 8 1024.1 1024.1 0.0
22/11:00pm 9.6 6.9 7.2 85 1.2 ENE 11 13 6 7 1024.2 1024.2 0.0
22/10:30pm 9.9 6.8 7.3 84 1.3 ENE 13 15 7 8 1024.4 1024.4 0.0
22/10:00pm 10.4 6.3 7.8 84 1.3 ENE 19 20 10 11 1024.3 1024.3 0.0
22/09:30pm 10.6 7.0 8.5 87 1.1 E 17 20 9 11 1024.4 1024.4 0.0
22/09:00pm 10.0 6.3 7.9 87 1.0 E 17 17 9 9 1024.4 1024.4 0.0
22/08:30pm 9.1 5.8 6.5 84 1.2 ESE 13 15 7 8 1024.5 1024.5 0.0
22/08:00pm 10.5 8.4 6.6 77 1.9 SE 7 11 4 6 1024.6 1024.6 0.0
22/07:30pm 11.0 9.8 6.6 74 2.1 ESE 2 9 1 5 1024.3 1024.3 0.0
22/07:00pm 11.1 8.2 6.3 72 2.3 E 11 13 6 7 1024.1 1024.1 0.0
22/06:30pm 12.3 9.6 7.2 71 2.5 NE 11 15 6 8 1023.9 1023.9 0.0
22/06:00pm 12.7 9.5 7.0 68 2.8 E 13 15 7 8 1023.6 1023.5 0.0
22/05:30pm 14.3 11.2 5.4 55 4.3 E 11 13 6 7 1023.5 1023.4 0.0
22/05:00pm 16.8 13.9 6.3 50 5.2 ENE 11 11 6 6 1023.4 1023.3 0.0
22/04:30pm 18.9 16.4 6.4 44 6.4 ESE 9 11 5 6 1023.0 1023.0 0.0
22/04:00pm 19.7 17.7 6.1 41 6.9 ESE 6 11 3 6 1023.1 1023.1 0.0
22/03:30pm 19.7 18.1 6.4 42 6.8 E 4 7 2 4 1023.1 1023.1 0.0
22/03:00pm 19.2 16.4 7.0 45 6.3 ESE 11 17 6 9 1023.1 1023.1 0.0
22/02:30pm 20.0 17.8 7.7 45 6.5 ESE 9 17 5 9 1023.0 1023.0 0.0
22/02:00pm 20.1 16.9 8.4 47 6.2 ESE 15 20 8 11 1023.2 1023.2 0.0
22/01:30pm 19.4 15.9 8.7 50 5.7 E 17 24 9 13 1023.6 1023.5 0.0
22/01:00pm 19.5 16.0 8.8 50 5.7 ESE 17 22 9 12 1023.9 1023.9 0.0
22/12:30pm 18.8 16.0 8.7 52 5.4 ESE 13 20 7 11 1024.2 1024.2 0.0
22/12:00pm 18.7 15.5 8.4 51 5.4 ESE 15 24 8 13 1024.8 1024.8 0.0
22/11:30am 19.0 14.9 8.6 51 5.5 E 20 30 11 16 1025.2 1025.2 0.0
22/11:00am 17.5 15.9 8.6 56 4.7 SSE 7 13 4 7 1025.8 1025.9 0.0
22/10:30am 16.7 15.0 8.4 58 4.3 ESE 7 15 4 8 1026.5 1026.5 0.0
22/10:00am 15.2 13.8 8.9 66 3.3 SW 6 9 3 5 1026.8 1026.8 0.0
22/09:30am 13.1 11.9 9.4 78 1.9 S 6 9 3 5 1026.9 1026.9 0.0
22/09:00am 11.3 11.0 8.7 84 1.3 CALM 0 7 0 4 1026.9 1026.9 0.0
22/08:30am 9.2 8.4 8.3 94 0.4 E 2 7 1 4 1026.8 1026.8 0.0
22/08:00am 6.6 5.7 6.2 97 0.2 CALM 0 0 0 0 1026.8 1026.8 0.0
22/07:30am 4.1 2.0 3.7 97 0.2 E 4 7 2 4 1026.3 1026.3 0.0
22/07:00am 2.6 -0.4 2.2 97 0.2 NE 7 9 4 5 1026.0 1026.0 0.0
22/06:30am 2.1 -0.4 1.7 97 0.2 ENE 4 7 2 4 1025.7 1025.8 0.0
22/06:00am 2.5 -0.5 2.1 97 0.2 ESE 7 9 4 5 1025.3 1025.3 0.0
22/05:30am 2.8 -0.5 2.4 97 0.2 E 9 11 5 6 1025.0 1025.0 0.0
22/05:00am 2.7 -1.0 2.3 97 0.2 SE 11 11 6 6 1024.7 1024.7 0.0
22/04:30am 3.0 0.3 2.6 97 0.2 SSW 6 7 3 4 1024.6 1024.6 0.0
22/04:00am 3.6 2.1 3.2 97 0.2 CALM 0 0 0 0 1024.5 1024.5 0.0
22/03:30am 3.6 1.7 3.0 96 0.2 E 2 6 1 3 1024.5 1024.5 0.0
22/03:00am 4.4 1.9 3.8 96 0.3 ESE 6 7 3 4 1024.1 1024.1 0.0
22/02:30am 4.2 1.5 3.5 95 0.3 E 7 11 4 6 1024.1 1024.1 0.0
22/02:00am 4.1 1.3 3.4 95 0.3 E 7 7 4 4 1024.1 1024.1 0.0
22/01:30am 4.6 2.1 3.7 94 0.4 ESE 6 7 3 4 1024.3 1024.3 0.0
22/01:00am 4.7 2.0 3.8 94 0.4 SE 7 11 4 6 1024.3 1024.3 0.0
22/12:30am 5.1 3.9 4.4 95 0.3 CALM 0 0 0 0 1024.5 1024.5 0.0
22/12:00am 5.1 2.7 4.1 93 0.4 SE 6 9 3 5 1024.4 1024.4 0.0
 
Date/Time
EST
Temp
°C
App
Temp
°C
Dew
Point
°C
Rel
Hum
%
Delta-T
°C
Wind Press
QNH
hPa
Press
MSL
hPa
Rain since
9am
mm
Dir  Spd
km/h
Gust
km/h
Spd
kts
Gust
kts
21/11:30pm 4.9 2.1 3.1 88 0.8 ESE 7 9 4 5 1024.6 1024.6 0.0
21/11:00pm 5.2 2.5 3.5 89 0.7 SE 7 9 4 5 1024.9 1024.9 0.0
21/10:30pm 5.9 3.3 3.4 84 1.1 SE 6 7 3 4 1025.1 1025.1 0.0

Latest Capital City Observations: Canberra | Sydney | Melbourne | Brisbane | Adelaide | Perth | Hobart | Darwin

Other Formats:

Comma delimited format used in spreadsheet applications
http://www.bom.gov.au/fwo/IDQ60901/IDQ60901.94552.axf

JavaScript Object Notation format (JSON) in row-major order
http://www.bom.gov.au/fwo/IDQ60901/IDQ60901.94552.json